createdAt,value
2017-12-02T00:01:52.613Z,26.10
2017-12-02T00:04:20.559Z,26.93
2017-12-02T00:06:48.080Z,27.20
2017-12-02T00:09:16.389Z,26.73
2017-12-02T00:11:43.919Z,25.37
2017-12-02T00:14:12.226Z,26.33
2017-12-02T00:16:39.738Z,24.37
2017-12-02T00:19:07.295Z,25.97
2017-12-02T00:21:34.821Z,29.57
2017-12-02T00:24:02.372Z,24.13
2017-12-02T00:26:29.897Z,25.50
2017-12-02T00:28:58.216Z,22.37
2017-12-02T00:31:25.752Z,25.97
2017-12-02T00:33:54.066Z,23.83
2017-12-02T00:36:21.594Z,25.73
2017-12-02T00:38:49.529Z,22.73
2017-12-02T00:41:17.051Z,22.00
2017-12-02T00:43:44.591Z,24.60
2017-12-02T00:46:12.503Z,25.33
2017-12-02T00:48:40.046Z,22.40
2017-12-02T00:51:07.580Z,23.50
2017-12-02T00:53:35.131Z,23.63
2017-12-02T00:56:02.649Z,23.83
2017-12-02T00:58:30.177Z,24.63
2017-12-02T01:00:58.489Z,21.50
2017-12-02T01:03:26.010Z,24.73
2017-12-02T01:05:53.556Z,24.73
2017-12-02T01:08:21.082Z,24.13
2017-12-02T01:10:48.625Z,24.87
2017-12-02T01:13:16.149Z,25.43
2017-12-02T01:15:43.694Z,28.60
2017-12-02T01:18:11.217Z,25.00
2017-12-02T01:20:39.154Z,27.40
2017-12-02T01:23:06.686Z,24.47
2017-12-02T01:25:34.241Z,28.07
2017-12-02T01:28:01.757Z,23.77
2017-12-02T01:30:29.301Z,24.13
2017-12-02T01:32:56.821Z,22.60
2017-12-02T01:35:24.365Z,22.17
2017-12-02T01:37:52.656Z,27.40
2017-12-02T01:40:20.187Z,25.93
2017-12-02T01:42:47.702Z,26.03
2017-12-02T01:45:15.243Z,23.60
2017-12-02T01:47:42.824Z,24.53
2017-12-02T01:50:10.378Z,25.60
2017-12-02T01:52:37.899Z,24.53
2017-12-02T01:55:06.211Z,22.53
2017-12-02T01:57:33.729Z,23.33
2017-12-02T02:00:02.030Z,22.27
2017-12-02T02:02:29.546Z,21.80
2017-12-02T02:04:57.091Z,20.57
2017-12-02T02:07:24.610Z,25.07
2017-12-02T02:09:52.147Z,21.10
2017-12-02T02:12:20.454Z,20.93
2017-12-02T02:14:47.979Z,22.67
2017-12-02T02:17:15.923Z,17.70
2017-12-02T02:19:44.200Z,20.70
2017-12-02T02:22:11.733Z,23.13
2017-12-02T02:24:39.253Z,20.57
2017-12-02T02:27:07.191Z,19.63
2017-12-02T02:29:34.721Z,26.37
2017-12-02T02:32:02.261Z,23.23
2017-12-02T02:34:29.795Z,25.30
2017-12-02T02:36:57.355Z,24.77
2017-12-02T02:39:24.879Z,24.80
2017-12-02T02:41:52.419Z,23.57
2017-12-02T02:44:19.937Z,21.93
2017-12-02T02:46:48.260Z,22.83
2017-12-02T02:49:16.962Z,22.70
2017-12-02T02:51:44.505Z,19.67
2017-12-02T02:54:12.025Z,19.17
2017-12-02T02:56:40.330Z,24.23
2017-12-02T02:59:07.849Z,22.17
2017-12-02T03:01:35.398Z,20.20
2017-12-02T03:04:02.914Z,20.57
2017-12-02T03:06:30.460Z,21.80
2017-12-02T03:08:57.978Z,24.43
2017-12-02T03:11:25.522Z,21.30
2017-12-02T03:13:53.046Z,21.83
2017-12-02T03:16:20.587Z,24.13
2017-12-02T03:18:48.866Z,22.57
2017-12-02T03:21:17.166Z,22.43
2017-12-02T03:23:44.700Z,27.67
2017-12-02T03:26:13.009Z,25.10
2017-12-02T03:28:40.540Z,20.97
2017-12-02T03:31:08.837Z,22.97
2017-12-02T03:33:36.372Z,19.80
2017-12-02T03:36:04.658Z,25.30
2017-12-02T03:38:32.602Z,22.20
2017-12-02T03:41:00.513Z,24.90
2017-12-02T03:43:28.046Z,24.33
2017-12-02T03:45:56.335Z,20.13
2017-12-02T03:48:24.649Z,21.43
2017-12-02T03:50:52.175Z,22.97
2017-12-02T03:53:20.114Z,21.77
2017-12-02T03:55:47.642Z,22.20
2017-12-02T03:58:15.196Z,22.70
2017-12-02T04:00:42.714Z,18.90
2017-12-02T04:03:10.654Z,22.90
2017-12-02T04:05:38.177Z,23.30
2017-12-02T04:08:06.487Z,25.20
2017-12-02T04:10:34.039Z,23.33
2017-12-02T04:13:01.575Z,24.70
2017-12-02T04:15:29.867Z,24.33
2017-12-02T04:17:57.801Z,29.33
2017-12-02T04:20:25.339Z,26.40
2017-12-02T04:22:52.876Z,29.93
2017-12-02T04:25:20.408Z,24.63
2017-12-02T04:27:47.950Z,29.87
2017-12-02T04:30:15.477Z,29.50
2017-12-02T04:32:43.019Z,26.23
2017-12-02T04:35:10.538Z,30.67
2017-12-02T04:37:38.083Z,32.87
2017-12-02T04:40:05.598Z,28.60
2017-12-02T04:42:33.138Z,26.60
2017-12-02T04:45:00.658Z,29.53
2017-12-02T04:47:28.191Z,28.00
2017-12-02T04:49:55.808Z,27.10
2017-12-02T04:52:23.293Z,26.50
2017-12-02T04:54:50.854Z,28.70
2017-12-02T04:57:18.379Z,27.17
2017-12-02T04:59:45.922Z,27.37
2017-12-02T05:02:13.449Z,25.20
2017-12-02T05:04:41.770Z,27.10
2017-12-02T05:07:09.289Z,27.23
2017-12-02T05:09:36.830Z,29.50
2017-12-02T05:12:05.117Z,30.77
2017-12-02T05:14:32.661Z,25.80
2017-12-02T05:17:00.174Z,26.87
2017-12-02T05:19:29.102Z,26.77
2017-12-02T05:21:56.666Z,29.37
2017-12-02T05:24:24.203Z,23.47
2017-12-02T05:26:51.736Z,28.80
2017-12-02T05:29:20.058Z,28.17
2017-12-02T05:31:47.634Z,25.63
2017-12-02T05:34:15.563Z,27.47
2017-12-02T05:36:43.098Z,24.10
2017-12-02T05:39:12.008Z,24.80
2017-12-02T05:41:39.935Z,31.67
2017-12-02T05:44:07.475Z,34.63
2017-12-02T05:46:35.772Z,34.83
2017-12-02T05:49:03.313Z,35.80
2017-12-02T05:51:30.833Z,53.90
2017-12-02T05:53:58.387Z,40.83
2017-12-02T05:56:25.904Z,44.97
2017-12-02T05:58:53.433Z,25.83
2017-12-02T06:01:20.984Z,36.50
2017-12-02T06:03:48.516Z,32.90
2017-12-02T06:06:16.831Z,32.93
2017-12-02T06:08:44.362Z,33.07
2017-12-02T06:11:12.742Z,28.43
2017-12-02T06:13:41.030Z,29.53
2017-12-02T06:16:08.574Z,25.90
2017-12-02T06:18:36.857Z,20.67
2017-12-02T06:21:05.160Z,23.80
2017-12-02T06:23:33.074Z,22.00
2017-12-02T06:26:00.633Z,24.33
2017-12-02T06:28:28.170Z,21.53
2017-12-02T06:30:56.485Z,22.90
2017-12-02T06:33:24.318Z,26.50
2017-12-02T06:35:51.860Z,24.67
2017-12-02T06:38:19.382Z,22.13
2017-12-02T06:40:47.696Z,22.60
2017-12-02T06:43:15.215Z,23.47
2017-12-02T06:45:43.157Z,20.27
2017-12-02T06:48:10.678Z,20.13
2017-12-02T06:50:38.210Z,26.20
2017-12-02T06:53:06.490Z,27.00
2017-12-02T06:55:34.797Z,26.53
2017-12-02T06:58:02.328Z,23.13
2017-12-02T07:00:30.637Z,23.00
2017-12-02T07:02:58.161Z,27.70
2017-12-02T07:05:26.466Z,23.80
2017-12-02T07:07:54.757Z,26.77
2017-12-02T07:10:22.285Z,24.87
2017-12-02T07:12:49.823Z,25.10
2017-12-02T07:15:17.354Z,25.70
2017-12-02T07:17:44.914Z,25.73
2017-12-02T07:20:12.462Z,26.60
2017-12-02T07:22:40.011Z,27.47
2017-12-02T07:25:07.534Z,26.57
2017-12-02T07:27:35.849Z,24.10
2017-12-02T07:30:03.377Z,27.70
2017-12-02T07:32:31.688Z,27.40
2017-12-02T07:34:59.213Z,26.60
2017-12-02T07:37:27.089Z,26.13
2017-12-02T07:39:54.622Z,27.37
2017-12-02T07:42:22.283Z,28.77
2017-12-02T07:44:50.935Z,25.00
2017-12-02T07:47:19.328Z,26.50
2017-12-02T07:49:46.850Z,24.83
2017-12-02T07:52:14.394Z,26.83
2017-12-02T07:54:42.673Z,30.90
2017-12-02T07:57:10.838Z,28.90
2017-12-02T07:59:38.763Z,23.17
2017-12-02T08:02:06.309Z,28.00
2017-12-02T08:04:33.833Z,24.97
2017-12-02T08:07:02.147Z,28.93
2017-12-02T08:09:29.673Z,25.67
2017-12-02T08:11:57.985Z,25.37
2017-12-02T08:14:25.900Z,27.07
2017-12-02T08:16:53.443Z,24.70
2017-12-02T08:19:21.973Z,24.57
2017-12-02T08:21:49.522Z,22.20
2017-12-02T08:24:17.831Z,24.90
2017-12-02T08:26:45.383Z,22.73
2017-12-02T08:29:12.903Z,24.97
2017-12-02T08:31:41.189Z,23.80
2017-12-02T08:34:09.501Z,24.23
2017-12-02T08:36:37.022Z,21.53
2017-12-02T08:39:04.985Z,21.10
2017-12-02T08:41:32.502Z,22.37
2017-12-02T08:44:00.029Z,24.20
2017-12-02T08:46:27.546Z,21.97
2017-12-02T08:48:55.102Z,49.53
2017-12-02T08:51:22.635Z,26.40
2017-12-02T08:53:50.170Z,51.87
2017-12-02T08:56:17.686Z,27.80
2017-12-02T08:58:45.220Z,26.57
2017-12-02T09:01:12.733Z,25.27
2017-12-02T09:03:40.282Z,22.63
2017-12-02T09:06:08.570Z,23.20
2017-12-02T09:08:36.875Z,26.10
2017-12-02T09:11:04.391Z,23.13
2017-12-02T09:13:31.930Z,32.30
2017-12-02T09:15:59.462Z,28.90
2017-12-02T09:18:27.003Z,21.87
2017-12-02T09:20:54.523Z,25.07
2017-12-02T09:23:22.467Z,22.97
2017-12-02T09:25:49.985Z,23.30
2017-12-02T09:28:18.309Z,21.23
2017-12-02T09:30:45.831Z,22.80
2017-12-02T09:33:13.364Z,21.53
2017-12-02T09:35:42.469Z,23.20
2017-12-02T09:38:10.782Z,23.33
2017-12-02T09:40:38.311Z,19.30
2017-12-02T09:43:06.634Z,21.70
2017-12-02T09:45:36.841Z,22.73
2017-12-02T09:48:04.388Z,22.57
2017-12-02T09:50:32.531Z,24.20
2017-12-02T09:53:00.469Z,22.10
2017-12-02T09:55:28.015Z,23.80
2017-12-02T09:57:55.975Z,18.30
2017-12-02T10:00:23.518Z,22.77
2017-12-02T10:02:51.054Z,19.27
2017-12-02T10:05:19.375Z,20.70
2017-12-02T10:07:47.546Z,23.63
2017-12-02T10:10:15.082Z,24.23
2017-12-02T10:12:42.609Z,20.73
2017-12-02T10:15:13.113Z,19.50
2017-12-02T10:17:40.645Z,19.70
2017-12-02T10:20:09.638Z,21.70
2017-12-02T10:22:37.366Z,20.57
2017-12-02T10:25:05.694Z,20.70
2017-12-02T10:27:33.218Z,15.93
2017-12-02T10:30:01.545Z,17.87
2017-12-02T10:32:29.087Z,20.53
2017-12-02T10:34:56.616Z,18.43
2017-12-02T10:37:25.354Z,19.00
2017-12-02T10:39:52.898Z,18.37
2017-12-02T10:42:20.416Z,21.13
2017-12-02T10:44:49.155Z,17.00
2017-12-02T10:47:16.689Z,17.97
2017-12-02T10:49:44.240Z,18.97
2017-12-02T10:52:11.762Z,20.00
2017-12-02T10:54:39.292Z,20.17
2017-12-02T10:57:06.809Z,21.03
2017-12-02T10:59:35.967Z,21.07
2017-12-02T11:02:04.131Z,23.67
2017-12-02T11:04:31.670Z,21.03
2017-12-02T11:06:59.206Z,19.70
2017-12-02T11:09:28.322Z,19.70
2017-12-02T11:11:55.854Z,19.60
2017-12-02T11:14:23.381Z,21.10
2017-12-02T11:16:52.315Z,23.33
2017-12-02T11:19:19.833Z,21.80
2017-12-02T11:21:47.370Z,22.50
2017-12-02T11:24:14.890Z,23.40
2017-12-02T11:26:42.430Z,24.10
2017-12-02T11:29:09.950Z,19.90
2017-12-02T11:31:37.489Z,21.57
2017-12-02T11:34:07.698Z,23.33
2017-12-02T11:36:35.238Z,20.70
2017-12-02T11:39:03.582Z,21.80
2017-12-02T11:41:31.861Z,25.03
2017-12-02T11:43:59.394Z,26.10
2017-12-02T11:46:26.946Z,19.83
2017-12-02T11:48:55.425Z,21.23
2017-12-02T11:51:22.981Z,32.77
2017-12-02T11:53:51.303Z,21.40
2017-12-02T11:56:18.878Z,20.27
2017-12-02T11:58:46.403Z,23.33
2017-12-02T12:01:13.946Z,22.57
2017-12-02T12:03:41.466Z,28.60
2017-12-02T12:06:11.085Z,19.00
2017-12-02T12:08:38.605Z,19.20
2017-12-02T12:11:06.582Z,19.90
2017-12-02T12:13:34.870Z,21.10
2017-12-02T12:16:02.412Z,22.37
2017-12-02T12:18:30.339Z,19.63
2017-12-02T12:20:59.082Z,18.00
2017-12-02T12:23:26.611Z,19.07
2017-12-02T12:25:54.178Z,19.17
2017-12-02T12:28:22.605Z,20.37
2017-12-02T12:30:50.137Z,19.63
2017-12-02T12:33:17.682Z,20.90
2017-12-02T12:35:45.201Z,20.30
2017-12-02T12:38:13.882Z,18.80
2017-12-02T12:40:41.406Z,19.60
2017-12-02T12:43:08.984Z,20.43
2017-12-02T12:45:37.270Z,22.50
2017-12-02T12:48:05.215Z,17.00
2017-12-02T12:50:32.750Z,22.37
2017-12-02T12:53:00.429Z,21.70
2017-12-02T12:55:27.954Z,19.70
2017-12-02T12:57:56.281Z,21.53
2017-12-02T13:00:23.806Z,22.03
2017-12-02T13:02:52.114Z,20.33
2017-12-02T13:05:19.633Z,23.57
2017-12-02T13:07:47.177Z,19.80
2017-12-02T13:10:15.461Z,23.80
2017-12-02T13:12:43.778Z,19.03
2017-12-02T13:15:12.097Z,24.60
2017-12-02T13:17:39.646Z,18.80
2017-12-02T13:20:07.169Z,23.20
2017-12-02T13:22:34.711Z,20.33
2017-12-02T13:25:03.020Z,22.67
2017-12-02T13:27:30.566Z,19.10
2017-12-02T13:29:58.097Z,22.13
2017-12-02T13:32:26.414Z,19.93
2017-12-02T13:34:53.943Z,21.60
2017-12-02T13:37:21.491Z,19.00
2017-12-02T13:39:49.794Z,19.77
2017-12-02T13:42:18.710Z,18.93
2017-12-02T13:44:46.251Z,19.67
2017-12-02T13:47:14.173Z,18.70
2017-12-02T13:49:42.487Z,20.30
2017-12-02T13:52:10.018Z,18.90
2017-12-02T13:54:37.567Z,18.97
2017-12-02T13:57:05.674Z,18.53
2017-12-02T13:59:33.215Z,17.87
2017-12-02T14:02:00.735Z,17.23
2017-12-02T14:04:29.219Z,19.63
2017-12-02T14:06:56.751Z,16.40
2017-12-02T14:09:24.293Z,18.17
2017-12-02T14:11:52.681Z,17.13
2017-12-02T14:14:20.237Z,16.60
2017-12-02T14:16:49.340Z,18.30
2017-12-02T14:19:16.877Z,17.20
2017-12-02T14:21:44.403Z,15.20
2017-12-02T14:24:11.966Z,16.13
2017-12-02T14:26:40.123Z,17.17
2017-12-02T14:29:07.682Z,18.87
2017-12-02T14:31:36.039Z,16.67
2017-12-02T14:34:03.577Z,17.17
2017-12-02T14:36:33.582Z,15.83
2017-12-02T14:39:01.894Z,16.70
2017-12-02T14:41:29.413Z,19.20
2017-12-02T14:43:57.675Z,16.87
2017-12-02T14:46:25.197Z,17.40
2017-12-02T14:48:53.410Z,17.03
2017-12-02T14:51:20.918Z,20.20
2017-12-02T14:53:48.809Z,19.23
2017-12-02T14:56:16.635Z,19.13
2017-12-02T14:58:44.936Z,18.63
2017-12-02T15:01:12.473Z,16.50
2017-12-02T15:03:40.001Z,18.43
2017-12-02T15:06:07.940Z,18.10
2017-12-02T15:08:35.474Z,17.77
2017-12-02T15:11:04.622Z,17.83
2017-12-02T15:13:32.330Z,17.13
2017-12-02T15:16:00.233Z,17.47
2017-12-02T15:18:27.766Z,17.80
2017-12-02T15:20:56.069Z,19.83
2017-12-02T15:23:24.438Z,16.53
2017-12-02T15:25:52.922Z,18.67
2017-12-02T15:28:21.217Z,18.60
2017-12-02T15:30:50.439Z,17.30
2017-12-02T15:33:18.395Z,17.40
2017-12-02T15:35:46.334Z,16.80
2017-12-02T15:38:14.638Z,20.23
2017-12-02T15:40:43.705Z,18.40
2017-12-02T15:43:11.255Z,19.77
2017-12-02T15:45:39.556Z,19.90
2017-12-02T15:48:07.994Z,19.27
2017-12-02T15:50:37.104Z,18.43
2017-12-02T15:53:04.634Z,20.70
2017-12-02T15:55:32.954Z,18.67
2017-12-02T15:58:01.264Z,20.23
2017-12-02T16:00:29.583Z,19.53
2017-12-02T16:02:58.055Z,17.40
2017-12-02T16:05:26.556Z,17.93
2017-12-02T16:07:54.485Z,19.10
2017-12-02T16:10:23.526Z,16.00
2017-12-02T16:12:52.683Z,19.20
2017-12-02T16:15:21.047Z,21.97
2017-12-02T16:17:48.572Z,18.00
2017-12-02T16:20:16.940Z,19.17
2017-12-02T16:22:44.458Z,17.70
2017-12-02T16:25:12.004Z,19.33
2017-12-02T16:27:39.623Z,22.23
2017-12-02T16:30:07.862Z,19.67
2017-12-02T16:32:36.909Z,19.20
2017-12-02T16:35:05.777Z,18.77
2017-12-02T16:37:33.334Z,22.77
2017-12-02T16:40:00.856Z,19.10
2017-12-02T16:42:29.168Z,21.30
2017-12-02T16:44:57.225Z,22.57
2017-12-02T16:47:25.532Z,22.17
2017-12-02T16:49:53.062Z,20.07
2017-12-02T16:52:20.627Z,19.73
2017-12-02T16:54:48.928Z,21.17
2017-12-02T16:57:16.473Z,22.13
2017-12-02T16:59:44.002Z,22.87
2017-12-02T17:02:11.559Z,23.60
2017-12-02T17:04:39.554Z,24.60
2017-12-02T17:07:07.101Z,22.27
2017-12-02T17:09:34.631Z,21.30
2017-12-02T17:12:02.943Z,20.90
2017-12-02T17:14:30.481Z,23.13
2017-12-02T17:16:58.024Z,25.07
2017-12-02T17:19:25.915Z,23.53
2017-12-02T17:21:53.469Z,30.20
2017-12-02T17:24:21.032Z,21.37
2017-12-02T17:26:48.594Z,21.30
2017-12-02T17:29:16.921Z,24.87
2017-12-02T17:31:44.473Z,25.23
2017-12-02T17:34:11.999Z,21.57
2017-12-02T17:36:39.538Z,23.23
2017-12-02T17:39:07.060Z,22.27
2017-12-02T17:41:35.419Z,25.37
2017-12-02T17:44:02.937Z,24.10
2017-12-02T17:46:31.151Z,27.23
2017-12-02T17:48:58.713Z,24.20
2017-12-02T17:51:26.990Z,25.97
2017-12-02T17:53:55.302Z,31.30
2017-12-02T17:56:22.831Z,26.73
2017-12-02T17:58:51.141Z,22.40
2017-12-02T18:01:18.672Z,23.73
2017-12-02T18:03:46.994Z,23.90
2017-12-02T18:06:14.513Z,21.60
2017-12-02T18:08:42.053Z,24.00
2017-12-02T18:11:09.579Z,22.50
2017-12-02T18:13:37.120Z,19.27
2017-12-02T18:16:04.649Z,22.47
2017-12-02T18:18:32.607Z,20.97
2017-12-02T18:21:00.906Z,19.10
2017-12-02T18:23:30.106Z,23.20
2017-12-02T18:25:58.390Z,23.20
2017-12-02T18:28:25.936Z,21.80
2017-12-02T18:30:53.853Z,18.93
2017-12-02T18:33:21.398Z,20.40
2017-12-02T18:35:48.929Z,20.17
2017-12-02T18:38:17.230Z,22.87
2017-12-02T18:40:44.770Z,23.37
2017-12-02T18:43:13.507Z,20.77
2017-12-02T18:45:41.025Z,20.03
2017-12-02T18:48:08.570Z,20.80
2017-12-02T18:50:36.877Z,21.97
2017-12-02T18:53:04.433Z,22.23
2017-12-02T18:55:31.963Z,24.47
2017-12-02T18:57:59.539Z,24.40
2017-12-02T19:00:27.074Z,21.63
2017-12-02T19:02:54.619Z,21.60
2017-12-02T19:05:22.157Z,24.00
2017-12-02T19:07:49.697Z,28.33
2017-12-02T19:10:17.305Z,25.40
2017-12-02T19:12:45.630Z,26.63
2017-12-02T19:15:13.171Z,24.53
2017-12-02T19:17:41.461Z,26.73
2017-12-02T19:20:09.006Z,25.90
2017-12-02T19:22:36.923Z,21.10
2017-12-02T19:25:04.471Z,22.60
2017-12-02T19:27:31.994Z,25.83
2017-12-02T19:30:00.310Z,23.20
2017-12-02T19:32:27.832Z,24.60
2017-12-02T19:34:55.379Z,25.73
2017-12-02T19:37:23.100Z,29.67
2017-12-02T19:39:50.654Z,27.70
2017-12-02T19:42:18.185Z,26.67
2017-12-02T19:44:45.733Z,26.23
2017-12-02T19:47:14.079Z,26.40
2017-12-02T19:49:41.618Z,24.50
2017-12-02T19:52:09.143Z,27.03
2017-12-02T19:54:37.458Z,26.70
2017-12-02T19:57:04.983Z,24.23
2017-12-02T19:59:32.915Z,29.33
2017-12-02T20:02:00.453Z,22.70
2017-12-02T20:04:28.006Z,26.17
2017-12-02T20:06:55.543Z,25.23
2017-12-02T20:09:23.081Z,26.97
2017-12-02T20:11:51.379Z,20.33
2017-12-02T20:14:19.722Z,23.43
2017-12-02T20:16:47.249Z,21.50
2017-12-02T20:19:14.776Z,23.43
2017-12-02T20:21:42.380Z,22.00
2017-12-02T20:24:09.915Z,25.07
2017-12-02T20:26:37.462Z,22.17
2017-12-02T20:29:04.990Z,23.37
2017-12-02T20:31:32.546Z,23.90
2017-12-02T20:34:00.093Z,24.47
2017-12-02T20:36:27.637Z,26.73
2017-12-02T20:38:55.162Z,22.40
2017-12-02T20:41:22.751Z,27.40
2017-12-02T20:43:50.292Z,26.90
2017-12-02T20:46:17.833Z,23.87
2017-12-02T20:48:46.621Z,24.13
2017-12-02T20:51:14.177Z,24.63
2017-12-02T20:53:41.724Z,24.40
2017-12-02T20:56:10.042Z,22.40
2017-12-02T20:58:37.576Z,22.17
2017-12-02T21:01:05.136Z,25.00
2017-12-02T21:03:33.432Z,23.70
2017-12-02T21:06:00.973Z,20.30
2017-12-02T21:08:28.494Z,24.03
2017-12-02T21:10:56.055Z,22.53
2017-12-02T21:13:23.579Z,22.23
2017-12-02T21:15:51.122Z,21.17
2017-12-02T21:18:18.645Z,23.10
2017-12-02T21:20:46.185Z,20.47
2017-12-02T21:23:13.707Z,19.97
2017-12-02T21:25:41.250Z,20.67
2017-12-02T21:28:09.537Z,18.43
2017-12-02T21:30:37.078Z,18.17
2017-12-02T21:33:04.633Z,20.67
2017-12-02T21:35:32.152Z,20.30
2017-12-02T21:37:59.705Z,22.63
2017-12-02T21:40:28.057Z,21.13
2017-12-02T21:42:55.591Z,22.90
2017-12-02T21:45:23.123Z,19.40
2017-12-02T21:47:51.610Z,19.73
2017-12-02T21:50:19.137Z,22.20
2017-12-02T21:52:46.681Z,20.77
2017-12-02T21:55:14.218Z,21.67
2017-12-02T21:57:41.762Z,22.93
2017-12-02T22:00:11.009Z,26.50
2017-12-02T22:02:38.556Z,20.27
2017-12-02T22:05:06.080Z,23.00
2017-12-02T22:07:33.623Z,25.43
2017-12-02T22:10:01.154Z,25.13
2017-12-02T22:12:28.698Z,27.17
2017-12-02T22:14:57.143Z,28.70
2017-12-02T22:17:24.741Z,27.17
2017-12-02T22:19:53.010Z,25.20
2017-12-02T22:22:21.325Z,25.03
2017-12-02T22:24:48.853Z,25.70
2017-12-02T22:27:18.360Z,31.47
2017-12-02T22:29:45.882Z,24.07
2017-12-02T22:32:13.449Z,24.37
2017-12-02T22:34:41.996Z,21.30
2017-12-02T22:37:09.545Z,18.53
2017-12-02T22:39:37.830Z,17.27
2017-12-02T22:42:05.365Z,16.23
2017-12-02T22:44:33.282Z,18.07
2017-12-02T22:47:01.228Z,17.37
2017-12-02T22:49:28.763Z,20.73
2017-12-02T22:51:56.554Z,21.70
2017-12-02T22:54:24.073Z,22.00
2017-12-02T22:56:52.371Z,22.67
2017-12-02T22:59:19.908Z,22.80
2017-12-02T23:01:47.438Z,21.00
2017-12-02T23:04:14.990Z,18.70
2017-12-02T23:06:42.534Z,16.53
2017-12-02T23:09:10.085Z,14.07
2017-12-02T23:11:39.310Z,15.03
2017-12-02T23:14:06.860Z,17.67
2017-12-02T23:16:34.395Z,17.20
2017-12-02T23:19:01.933Z,16.87
2017-12-02T23:21:29.463Z,15.53
2017-12-02T23:23:57.012Z,18.57
2017-12-02T23:26:24.542Z,16.43
2017-12-02T23:28:52.103Z,17.77
2017-12-02T23:31:20.196Z,18.77
2017-12-02T23:33:47.734Z,21.80
2017-12-02T23:36:15.262Z,15.73
2017-12-02T23:38:42.810Z,19.20
2017-12-02T23:41:10.339Z,16.87
2017-12-02T23:43:37.878Z,16.23
2017-12-02T23:46:06.165Z,18.00
2017-12-02T23:48:33.706Z,15.20
2017-12-02T23:51:01.230Z,17.00
2017-12-02T23:53:29.553Z,19.47
2017-12-02T23:55:57.097Z,18.80
2017-12-02T23:58:24.642Z,16.93
